createdAt,value
2023-05-03T00:02:06.692Z,7.70
2023-05-03T00:06:28.945Z,7.70
2023-05-03T00:10:51.460Z,7.70
2023-05-03T00:15:13.844Z,7.60
2023-05-03T00:19:38.250Z,7.60
2023-05-03T00:24:00.405Z,7.50
2023-05-03T00:28:23.031Z,7.40
2023-05-03T00:32:45.181Z,7.40
2023-05-03T00:37:07.349Z,7.30
2023-05-03T00:41:29.338Z,7.30
2023-05-03T00:45:55.273Z,7.20
2023-05-03T00:50:21.768Z,7.20
2023-05-03T00:54:44.341Z,7.10
2023-05-03T00:59:06.929Z,7.10
2023-05-03T01:03:30.263Z,7.10
2023-05-03T01:08:24.252Z,7.10
2023-05-03T01:13:10.531Z,7.10
2023-05-03T01:17:40.260Z,7.10
2023-05-03T01:22:30.229Z,7.00
2023-05-03T01:26:52.912Z,7.00
2023-05-03T01:31:43.273Z,7.00
2023-05-03T01:36:21.674Z,6.90
2023-05-03T01:40:53.948Z,6.80
2023-05-03T01:45:16.886Z,6.70
2023-05-03T01:49:38.758Z,6.70
2023-05-03T01:54:01.249Z,6.70
2023-05-03T01:58:24.369Z,6.60
2023-05-03T02:02:46.490Z,6.50
2023-05-03T02:07:09.482Z,6.40
2023-05-03T02:11:31.841Z,6.30
2023-05-03T02:15:55.668Z,6.30
2023-05-03T02:20:18.610Z,6.30
2023-05-03T02:24:40.751Z,6.30
2023-05-03T02:29:03.414Z,6.20
2023-05-03T02:33:28.239Z,6.20
2023-05-03T02:37:50.864Z,6.20
2023-05-03T02:42:13.389Z,6.20
2023-05-03T02:46:36.291Z,6.20
2023-05-03T02:50:58.928Z,6.20
2023-05-03T02:55:22.031Z,6.20
2023-05-03T02:59:44.910Z,6.20
2023-05-03T03:04:07.700Z,6.20
2023-05-03T03:08:30.084Z,6.10
2023-05-03T03:12:56.188Z,6.10
2023-05-03T03:17:24.644Z,6.00
2023-05-03T03:21:47.275Z,5.90
2023-05-03T03:26:09.714Z,5.90
2023-05-03T03:30:32.268Z,6.00
2023-05-03T03:35:14.547Z,6.00
2023-05-03T03:39:37.181Z,6.00
2023-05-03T03:43:59.289Z,6.00
2023-05-03T03:48:21.567Z,6.10
2023-05-03T03:52:44.171Z,6.10
2023-05-03T03:57:07.161Z,6.10
2023-05-03T04:01:29.943Z,6.10
2023-05-03T04:05:52.831Z,6.20
2023-05-03T04:10:16.984Z,6.20
2023-05-03T04:14:39.690Z,6.30
2023-05-03T04:19:02.574Z,6.30
2023-05-03T04:23:26.613Z,6.40
2023-05-03T04:27:49.349Z,6.50
2023-05-03T04:32:14.561Z,6.50
2023-05-03T04:36:38.352Z,6.60
2023-05-03T04:41:04.774Z,6.70
2023-05-03T04:45:27.458Z,6.80
2023-05-03T04:49:50.129Z,6.90
2023-05-03T04:54:18.635Z,7.10
2023-05-03T04:58:44.951Z,7.20
2023-05-03T05:03:10.965Z,7.40
2023-05-03T05:07:34.950Z,7.60
2023-05-03T05:11:59.723Z,7.70
2023-05-03T05:16:28.883Z,7.90
2023-05-03T05:20:51.309Z,8.10
2023-05-03T05:25:18.206Z,8.40
2023-05-03T05:29:41.085Z,8.80
2023-05-03T05:34:04.645Z,9.20
2023-05-03T05:38:28.254Z,9.70
2023-05-03T05:42:53.673Z,10.30
2023-05-03T05:47:18.540Z,11.00
2023-05-03T05:51:42.866Z,11.80
2023-05-03T05:56:07.084Z,12.50
2023-05-03T06:00:30.848Z,12.90
2023-05-03T06:04:53.189Z,13.30
2023-05-03T06:09:24.185Z,13.60
2023-05-03T06:13:51.529Z,14.20
2023-05-03T06:18:14.781Z,15.50
2023-05-03T06:22:37.111Z,15.80
2023-05-03T06:27:00.559Z,16.60
2023-05-03T06:31:22.833Z,18.50
2023-05-03T06:35:47.400Z,21.20
2023-05-03T06:40:11.814Z,24.80
2023-05-03T06:44:34.493Z,25.10
2023-05-03T06:48:57.959Z,22.50
2023-05-03T06:53:20.824Z,22.40
2023-05-03T06:57:43.168Z,25.70
2023-05-03T07:02:05.310Z,26.10
2023-05-03T07:06:27.760Z,26.20
2023-05-03T07:10:50.133Z,26.40
2023-05-03T07:15:12.187Z,25.50
2023-05-03T07:19:34.476Z,27.20
2023-05-03T07:23:56.967Z,27.60
2023-05-03T07:28:19.332Z,28.60
2023-05-03T07:32:41.820Z,29.40
2023-05-03T07:37:04.340Z,31.00
2023-05-03T07:41:27.010Z,30.50
2023-05-03T07:45:49.895Z,31.60
2023-05-03T07:50:12.029Z,31.10
2023-05-03T07:54:34.050Z,32.90
2023-05-03T07:59:07.517Z,33.60
2023-05-03T08:03:31.253Z,31.10
2023-05-03T08:07:53.589Z,30.30
2023-05-03T08:12:16.173Z,33.30
2023-05-03T08:16:38.155Z,33.90
2023-05-03T08:21:00.826Z,31.40
2023-05-03T08:25:28.489Z,28.10
2023-05-03T08:29:50.990Z,25.60
2023-05-03T08:34:13.416Z,23.70
2023-05-03T08:38:36.853Z,22.50
2023-05-03T08:43:06.456Z,25.50
2023-05-03T08:47:33.657Z,29.90
2023-05-03T08:51:56.987Z,32.70
2023-05-03T08:56:42.385Z,32.60
2023-05-03T09:01:06.722Z,33.30
2023-05-03T09:05:34.803Z,34.50
2023-05-03T09:09:58.895Z,35.20
2023-05-03T09:14:21.549Z,34.70
2023-05-03T09:19:11.912Z,34.50
2023-05-03T09:23:34.667Z,33.90
2023-05-03T09:28:03.106Z,31.80
2023-05-03T09:32:25.864Z,31.50
2023-05-03T09:36:48.581Z,33.10
2023-05-03T09:41:11.580Z,33.60
2023-05-03T09:45:34.570Z,34.70
2023-05-03T09:49:57.094Z,32.90
2023-05-03T09:54:19.224Z,30.20
2023-05-03T09:58:43.840Z,29.10
2023-05-03T10:03:12.580Z,31.50
2023-05-03T10:07:35.407Z,33.50
2023-05-03T10:12:02.445Z,34.90
2023-05-03T10:16:32.933Z,35.50
2023-05-03T10:21:04.466Z,35.10
2023-05-03T10:25:26.913Z,34.50
2023-05-03T10:29:52.753Z,32.50
2023-05-03T10:34:31.121Z,32.80
2023-05-03T10:38:54.001Z,33.30
2023-05-03T10:43:31.702Z,32.70
2023-05-03T10:48:12.301Z,31.10
2023-05-03T10:52:48.399Z,30.40
2023-05-03T10:57:12.258Z,30.60
2023-05-03T11:01:36.901Z,30.40
2023-05-03T11:05:59.446Z,30.30
2023-05-03T11:10:22.037Z,28.20
2023-05-03T11:14:44.216Z,25.60
2023-05-03T11:19:06.584Z,26.60
2023-05-03T11:23:30.014Z,22.60
2023-05-03T11:27:52.438Z,19.20
2023-05-03T11:32:16.560Z,17.10
2023-05-03T11:36:38.966Z,15.90
2023-05-03T11:41:11.864Z,15.60
2023-05-03T11:45:44.122Z,16.20
2023-05-03T11:50:07.498Z,16.10
2023-05-03T11:54:31.135Z,16.10
2023-05-03T11:58:58.760Z,15.50
2023-05-03T12:03:33.578Z,13.90
2023-05-03T12:07:57.522Z,13.60
2023-05-03T12:12:25.709Z,13.90
2023-05-03T12:16:54.079Z,14.40
2023-05-03T12:25:44.660Z,14.40
2023-05-03T12:30:10.918Z,14.10
2023-05-03T12:34:36.124Z,13.80
2023-05-03T12:39:03.039Z,13.50
2023-05-03T12:43:25.907Z,13.60
2023-05-03T12:47:50.131Z,14.10
2023-05-03T12:52:36.335Z,14.40
2023-05-03T12:56:55.911Z,14.60
2023-05-03T13:05:47.289Z,14.20
2023-05-03T13:14:43.015Z,13.90
2023-05-03T13:19:06.021Z,14.00
2023-05-03T13:23:31.568Z,14.20
2023-05-03T13:27:54.710Z,14.30
2023-05-03T13:32:17.510Z,14.20
2023-05-03T13:36:39.745Z,14.20
2023-05-03T13:41:08.658Z,14.30
2023-05-03T13:45:30.699Z,14.30
2023-05-03T13:49:57.551Z,14.20
2023-05-03T13:54:19.965Z,14.10
2023-05-03T13:58:42.603Z,14.00
2023-05-03T14:03:05.299Z,14.10
2023-05-03T14:07:27.908Z,14.20
2023-05-03T14:11:50.135Z,13.90
2023-05-03T14:16:39.322Z,13.40
2023-05-03T14:21:04.405Z,13.20
2023-05-03T14:25:31.072Z,13.40
2023-05-03T14:29:54.770Z,13.40
2023-05-03T14:34:17.808Z,13.40
2023-05-03T14:38:40.155Z,13.10
2023-05-03T14:43:02.274Z,13.00
2023-05-03T14:47:24.833Z,12.90
2023-05-03T14:51:47.475Z,13.10
2023-05-03T14:56:10.065Z,13.30
2023-05-03T15:00:32.541Z,13.20
2023-05-03T15:04:54.934Z,13.20
2023-05-03T15:09:17.971Z,13.10
2023-05-03T15:13:40.818Z,13.20
2023-05-03T15:18:03.342Z,13.10
2023-05-03T15:22:25.587Z,13.10
2023-05-03T15:26:47.872Z,13.00
2023-05-03T15:31:10.141Z,12.90
2023-05-03T15:35:32.746Z,13.00
2023-05-03T15:39:55.227Z,13.00
2023-05-03T15:44:17.466Z,12.90
2023-05-03T15:48:39.865Z,13.00
2023-05-03T15:53:02.042Z,13.10
2023-05-03T15:57:24.745Z,12.90
2023-05-03T16:01:47.581Z,12.80
2023-05-03T16:06:10.496Z,12.60
2023-05-03T16:10:34.486Z,12.50
2023-05-03T16:14:57.767Z,12.60
2023-05-03T16:19:19.662Z,12.50
2023-05-03T16:23:41.730Z,12.60
2023-05-03T16:28:04.210Z,12.50
2023-05-03T16:32:26.703Z,12.40
2023-05-03T16:36:49.371Z,12.40
2023-05-03T16:41:11.808Z,12.30
2023-05-03T16:45:34.480Z,12.30
2023-05-03T16:49:57.963Z,12.30
2023-05-03T16:54:20.187Z,12.10
2023-05-03T16:58:42.289Z,12.10
2023-05-03T17:03:05.630Z,12.00
2023-05-03T17:07:32.161Z,11.80
2023-05-03T17:11:54.838Z,11.80
2023-05-03T17:16:18.637Z,11.80
2023-05-03T17:20:41.227Z,11.80
2023-05-03T17:25:04.152Z,11.70
2023-05-03T17:29:26.872Z,11.60
2023-05-03T17:33:49.278Z,11.50
2023-05-03T17:38:12.583Z,11.40
2023-05-03T17:42:35.685Z,11.30
2023-05-03T17:46:58.627Z,11.20
2023-05-03T17:51:20.565Z,11.20
2023-05-03T17:55:42.521Z,11.00
2023-05-03T18:00:06.612Z,11.00
2023-05-03T18:04:29.265Z,10.90
2023-05-03T18:08:52.010Z,10.80
2023-05-03T18:13:14.472Z,10.60
2023-05-03T18:17:36.721Z,10.50
2023-05-03T18:21:58.992Z,10.40
2023-05-03T18:26:21.319Z,10.20
2023-05-03T18:30:43.881Z,10.10
2023-05-03T18:35:08.097Z,9.80
2023-05-03T18:39:30.482Z,9.60
2023-05-03T18:43:53.008Z,9.40
2023-05-03T18:48:15.732Z,9.20
2023-05-03T18:52:39.923Z,9.10
2023-05-03T18:57:02.941Z,8.80
2023-05-03T19:01:26.964Z,8.60
2023-05-03T19:05:49.577Z,8.40
2023-05-03T19:10:12.107Z,8.30
2023-05-03T19:14:38.929Z,8.10
2023-05-03T19:19:01.577Z,7.80
2023-05-03T19:23:25.660Z,7.50
2023-05-03T19:27:48.111Z,7.30
2023-05-03T19:32:12.325Z,7.20
2023-05-03T19:36:34.752Z,7.10
2023-05-03T19:40:58.883Z,7.00
2023-05-03T19:45:21.648Z,6.90
2023-05-03T19:49:47.424Z,6.80
2023-05-03T19:54:09.891Z,6.80
2023-05-03T19:58:32.949Z,6.70
2023-05-03T20:02:55.476Z,6.60
2023-05-03T20:07:17.723Z,6.40
2023-05-03T20:11:40.341Z,6.30
2023-05-03T20:16:06.275Z,6.10
2023-05-03T20:20:37.658Z,6.00
2023-05-03T20:24:59.934Z,6.00
2023-05-03T20:29:23.072Z,6.00
2023-05-03T20:33:45.510Z,5.90
2023-05-03T20:38:07.656Z,5.80
2023-05-03T20:42:29.814Z,5.90
2023-05-03T20:46:51.683Z,5.80
2023-05-03T20:51:15.052Z,5.70
2023-05-03T20:55:38.758Z,5.60
2023-05-03T21:00:02.784Z,5.50
2023-05-03T21:04:26.537Z,5.40
2023-05-03T21:08:48.953Z,5.40
2023-05-03T21:13:11.353Z,5.30
2023-05-03T21:17:33.583Z,5.20
2023-05-03T21:21:56.485Z,5.20
2023-05-03T21:26:18.577Z,5.00
2023-05-03T21:30:42.349Z,4.90
2023-05-03T21:35:04.982Z,4.90
2023-05-03T21:39:27.288Z,4.80
2023-05-03T21:43:50.227Z,4.70
2023-05-03T21:48:12.838Z,4.70
2023-05-03T21:52:36.497Z,4.70
2023-05-03T21:56:59.889Z,4.70
2023-05-03T22:01:23.301Z,4.60
2023-05-03T22:05:47.924Z,4.60
2023-05-03T22:10:10.320Z,4.50
2023-05-03T22:14:34.625Z,4.50
2023-05-03T22:18:56.925Z,4.40
2023-05-03T22:23:19.295Z,4.40
2023-05-03T22:27:41.685Z,4.40
2023-05-03T22:32:04.147Z,4.20
2023-05-03T22:36:26.226Z,4.00
2023-05-03T22:40:48.485Z,3.90
2023-05-03T22:45:11.009Z,3.80
2023-05-03T22:49:33.434Z,3.70
2023-05-03T22:53:55.849Z,3.60
2023-05-03T22:58:17.983Z,3.60
2023-05-03T23:02:40.437Z,3.70
2023-05-03T23:07:02.868Z,3.60
2023-05-03T23:11:25.008Z,3.50
2023-05-03T23:15:47.052Z,3.30
2023-05-03T23:20:10.263Z,3.20
2023-05-03T23:24:34.965Z,3.10
2023-05-03T23:34:40.735Z,3.10
2023-05-03T23:39:03.711Z,3.00
2023-05-03T23:43:25.913Z,2.80
2023-05-03T23:47:47.956Z,2.70
2023-05-03T23:52:10.396Z,2.60
2023-05-03T23:56:32.458Z,2.60
